sensor_id;sensor_type;location;lat;lon;timestamp;temperature;humidity
20125;DHT22;10223;50.862;4.360;2023-07-13T00:01:50;17.30;99.90
20125;DHT22;10223;50.862;4.360;2023-07-13T00:04:20;17.30;99.90
20125;DHT22;10223;50.862;4.360;2023-07-13T00:06:48;17.20;99.90
20125;DHT22;10223;50.862;4.360;2023-07-13T00:09:17;17.20;99.90
20125;DHT22;10223;50.862;4.360;2023-07-13T00:11:45;17.20;99.90
20125;DHT22;10223;50.862;4.360;2023-07-13T00:14:13;17.20;99.90
20125;DHT22;10223;50.862;4.360;2023-07-13T00:16:42;17.10;99.90
20125;DHT22;10223;50.862;4.360;2023-07-13T00:19:10;17.10;99.90
20125;DHT22;10223;50.862;4.360;2023-07-13T00:21:37;17.00;99.90
20125;DHT22;10223;50.862;4.360;2023-07-13T00:24:05;17.00;99.90
20125;DHT22;10223;50.862;4.360;2023-07-13T00:26:33;16.90;99.90
20125;DHT22;10223;50.862;4.360;2023-07-13T00:29:00;16.90;99.90
20125;DHT22;10223;50.862;4.360;2023-07-13T00:31:27;16.90;99.90
20125;DHT22;10223;50.862;4.360;2023-07-13T00:33:55;17.00;99.90
20125;DHT22;10223;50.862;4.360;2023-07-13T00:36:22;16.90;99.90
20125;DHT22;10223;50.862;4.360;2023-07-13T00:38:50;16.90;99.90
20125;DHT22;10223;50.862;4.360;2023-07-13T00:41:17;17.00;99.90
20125;DHT22;10223;50.862;4.360;2023-07-13T00:43:44;17.00;99.90
20125;DHT22;10223;50.862;4.360;2023-07-13T00:46:19;16.90;99.90
20125;DHT22;10223;50.862;4.360;2023-07-13T00:48:47;16.90;99.90
20125;DHT22;10223;50.862;4.360;2023-07-13T00:51:20;16.80;99.90
20125;DHT22;10223;50.862;4.360;2023-07-13T00:53:49;16.90;99.90
20125;DHT22;10223;50.862;4.360;2023-07-13T00:56:17;16.90;99.90
20125;DHT22;10223;50.862;4.360;2023-07-13T00:58:45;16.90;99.90
20125;DHT22;10223;50.862;4.360;2023-07-13T01:01:12;16.80;99.90
20125;DHT22;10223;50.862;4.360;2023-07-13T01:03:39;16.90;99.90
20125;DHT22;10223;50.862;4.360;2023-07-13T01:06:07;16.90;99.90
20125;DHT22;10223;50.862;4.360;2023-07-13T01:08:36;16.80;99.90
20125;DHT22;10223;50.862;4.360;2023-07-13T01:11:03;16.80;99.90
20125;DHT22;10223;50.862;4.360;2023-07-13T01:13:30;16.70;99.90
20125;DHT22;10223;50.862;4.360;2023-07-13T01:16:00;16.70;99.90
20125;DHT22;10223;50.862;4.360;2023-07-13T01:18:28;16.60;99.90
20125;DHT22;10223;50.862;4.360;2023-07-13T01:21:00;16.50;99.90
20125;DHT22;10223;50.862;4.360;2023-07-13T01:23:29;16.50;99.90
20125;DHT22;10223;50.862;4.360;2023-07-13T01:25:57;16.50;99.90
20125;DHT22;10223;50.862;4.360;2023-07-13T01:28:26;16.40;99.90
20125;DHT22;10223;50.862;4.360;2023-07-13T01:30:55;16.40;99.90
20125;DHT22;10223;50.862;4.360;2023-07-13T01:33:22;16.40;99.90
20125;DHT22;10223;50.862;4.360;2023-07-13T01:35:49;16.40;99.90
20125;DHT22;10223;50.862;4.360;2023-07-13T01:38:20;16.30;99.90
20125;DHT22;10223;50.862;4.360;2023-07-13T01:40:47;16.30;99.90
20125;DHT22;10223;50.862;4.360;2023-07-13T01:43:14;16.20;99.90
20125;DHT22;10223;50.862;4.360;2023-07-13T01:45:41;16.20;99.90
20125;DHT22;10223;50.862;4.360;2023-07-13T01:48:09;16.30;99.90
20125;DHT22;10223;50.862;4.360;2023-07-13T01:50:36;16.10;99.90
20125;DHT22;10223;50.862;4.360;2023-07-13T01:53:04;16.10;99.90
20125;DHT22;10223;50.862;4.360;2023-07-13T01:55:33;16.10;99.90
20125;DHT22;10223;50.862;4.360;2023-07-13T01:58:00;16.00;99.90
20125;DHT22;10223;50.862;4.360;2023-07-13T02:00:27;16.00;99.90
20125;DHT22;10223;50.862;4.360;2023-07-13T02:02:54;16.00;99.90
20125;DHT22;10223;50.862;4.360;2023-07-13T02:05:21;16.10;99.90
20125;DHT22;10223;50.862;4.360;2023-07-13T02:07:48;16.00;99.90
20125;DHT22;10223;50.862;4.360;2023-07-13T02:10:15;16.10;99.90
20125;DHT22;10223;50.862;4.360;2023-07-13T02:12:44;16.00;99.90
20125;DHT22;10223;50.862;4.360;2023-07-13T02:15:11;16.00;99.90
20125;DHT22;10223;50.862;4.360;2023-07-13T02:17:38;16.10;99.90
20125;DHT22;10223;50.862;4.360;2023-07-13T02:20:07;16.00;99.90
20125;DHT22;10223;50.862;4.360;2023-07-13T02:22:35;16.10;99.90
20125;DHT22;10223;50.862;4.360;2023-07-13T02:25:02;16.00;99.90
20125;DHT22;10223;50.862;4.360;2023-07-13T02:27:29;15.90;99.90
20125;DHT22;10223;50.862;4.360;2023-07-13T02:29:58;15.70;99.90
20125;DHT22;10223;50.862;4.360;2023-07-13T02:32:25;15.70;99.90
20125;DHT22;10223;50.862;4.360;2023-07-13T02:34:53;15.70;99.90
20125;DHT22;10223;50.862;4.360;2023-07-13T02:37:20;15.80;99.90
20125;DHT22;10223;50.862;4.360;2023-07-13T02:39:47;15.70;99.90
20125;DHT22;10223;50.862;4.360;2023-07-13T02:42:14;15.70;99.90
20125;DHT22;10223;50.862;4.360;2023-07-13T02:44:41;15.70;99.90
20125;DHT22;10223;50.862;4.360;2023-07-13T02:47:10;15.80;99.90
20125;DHT22;10223;50.862;4.360;2023-07-13T02:49:38;15.80;99.90
20125;DHT22;10223;50.862;4.360;2023-07-13T02:52:06;15.80;99.90
20125;DHT22;10223;50.862;4.360;2023-07-13T02:54:33;15.70;99.90
20125;DHT22;10223;50.862;4.360;2023-07-13T02:57:00;15.70;99.90
20125;DHT22;10223;50.862;4.360;2023-07-13T02:59:27;15.60;99.90
20125;DHT22;10223;50.862;4.360;2023-07-13T03:01:54;15.70;99.90
20125;DHT22;10223;50.862;4.360;2023-07-13T03:04:23;15.50;99.90
20125;DHT22;10223;50.862;4.360;2023-07-13T03:06:50;15.40;99.90
20125;DHT22;10223;50.862;4.360;2023-07-13T03:09:17;15.40;99.90
20125;DHT22;10223;50.862;4.360;2023-07-13T03:11:44;15.40;99.90
20125;DHT22;10223;50.862;4.360;2023-07-13T03:14:11;15.40;99.90
20125;DHT22;10223;50.862;4.360;2023-07-13T03:16:38;15.40;99.90
20125;DHT22;10223;50.862;4.360;2023-07-13T03:19:06;15.40;99.90
20125;DHT22;10223;50.862;4.360;2023-07-13T03:21:34;15.30;99.90
20125;DHT22;10223;50.862;4.360;2023-07-13T03:24:01;15.40;99.90
20125;DHT22;10223;50.862;4.360;2023-07-13T03:26:28;15.40;99.90
20125;DHT22;10223;50.862;4.360;2023-07-13T03:28:55;15.50;99.90
20125;DHT22;10223;50.862;4.360;2023-07-13T03:31:27;15.40;99.90
20125;DHT22;10223;50.862;4.360;2023-07-13T03:33:55;15.40;99.90
20125;DHT22;10223;50.862;4.360;2023-07-13T03:36:25;15.40;99.90
20125;DHT22;10223;50.862;4.360;2023-07-13T03:38:55;15.30;99.90
20125;DHT22;10223;50.862;4.360;2023-07-13T03:41:23;15.30;99.90
20125;DHT22;10223;50.862;4.360;2023-07-13T03:43:51;15.40;99.90
20125;DHT22;10223;50.862;4.360;2023-07-13T03:46:19;15.40;99.90
20125;DHT22;10223;50.862;4.360;2023-07-13T03:48:47;15.30;99.90
20125;DHT22;10223;50.862;4.360;2023-07-13T03:51:16;15.50;99.90
20125;DHT22;10223;50.862;4.360;2023-07-13T03:53:44;15.40;99.90
20125;DHT22;10223;50.862;4.360;2023-07-13T03:56:14;15.40;99.90
20125;DHT22;10223;50.862;4.360;2023-07-13T03:58:43;15.50;99.90
20125;DHT22;10223;50.862;4.360;2023-07-13T04:01:11;15.50;99.90
20125;DHT22;10223;50.862;4.360;2023-07-13T04:03:39;15.50;99.90
20125;DHT22;10223;50.862;4.360;2023-07-13T04:06:14;15.40;99.90
20125;DHT22;10223;50.862;4.360;2023-07-13T04:08:42;15.50;99.90
20125;DHT22;10223;50.862;4.360;2023-07-13T04:11:09;15.50;99.90
20125;DHT22;10223;50.862;4.360;2023-07-13T04:13:37;15.50;99.90
20125;DHT22;10223;50.862;4.360;2023-07-13T04:16:04;15.60;99.90
20125;DHT22;10223;50.862;4.360;2023-07-13T04:18:31;15.60;99.90
20125;DHT22;10223;50.862;4.360;2023-07-13T04:20:58;15.50;99.90
20125;DHT22;10223;50.862;4.360;2023-07-13T04:23:25;15.40;99.90
20125;DHT22;10223;50.862;4.360;2023-07-13T04:25:53;15.50;99.90
20125;DHT22;10223;50.862;4.360;2023-07-13T04:28:21;15.50;99.90
20125;DHT22;10223;50.862;4.360;2023-07-13T04:30:50;15.30;99.90
20125;DHT22;10223;50.862;4.360;2023-07-13T04:33:17;15.30;99.90
20125;DHT22;10223;50.862;4.360;2023-07-13T04:35:48;15.20;99.90
20125;DHT22;10223;50.862;4.360;2023-07-13T04:38:15;15.30;99.90
20125;DHT22;10223;50.862;4.360;2023-07-13T04:40:44;15.40;99.90
20125;DHT22;10223;50.862;4.360;2023-07-13T04:43:11;15.50;99.90
20125;DHT22;10223;50.862;4.360;2023-07-13T04:45:38;15.50;99.90
20125;DHT22;10223;50.862;4.360;2023-07-13T04:48:07;15.60;99.90
20125;DHT22;10223;50.862;4.360;2023-07-13T04:50:36;15.60;99.90
20125;DHT22;10223;50.862;4.360;2023-07-13T04:53:04;15.60;99.90
20125;DHT22;10223;50.862;4.360;2023-07-13T04:55:31;15.60;99.90
20125;DHT22;10223;50.862;4.360;2023-07-13T04:57:58;15.60;99.90
20125;DHT22;10223;50.862;4.360;2023-07-13T05:00:26;15.50;99.90
20125;DHT22;10223;50.862;4.360;2023-07-13T05:02:54;15.50;99.90
20125;DHT22;10223;50.862;4.360;2023-07-13T05:05:25;15.60;99.90
20125;DHT22;10223;50.862;4.360;2023-07-13T05:07:52;15.60;99.90
20125;DHT22;10223;50.862;4.360;2023-07-13T05:10:19;15.60;99.90
20125;DHT22;10223;50.862;4.360;2023-07-13T05:12:46;15.60;99.90
20125;DHT22;10223;50.862;4.360;2023-07-13T05:15:14;15.60;99.90
20125;DHT22;10223;50.862;4.360;2023-07-13T05:17:41;15.60;99.90
20125;DHT22;10223;50.862;4.360;2023-07-13T05:20:09;15.50;99.90
20125;DHT22;10223;50.862;4.360;2023-07-13T05:22:38;15.60;99.90
20125;DHT22;10223;50.862;4.360;2023-07-13T05:25:06;15.60;99.90
20125;DHT22;10223;50.862;4.360;2023-07-13T05:27:34;15.70;99.90
20125;DHT22;10223;50.862;4.360;2023-07-13T05:30:01;15.50;99.90
20125;DHT22;10223;50.862;4.360;2023-07-13T05:32:28;15.60;99.90
20125;DHT22;10223;50.862;4.360;2023-07-13T05:34:55;15.70;99.90
20125;DHT22;10223;50.862;4.360;2023-07-13T05:37:22;15.70;99.90
20125;DHT22;10223;50.862;4.360;2023-07-13T05:39:51;15.70;99.90
20125;DHT22;10223;50.862;4.360;2023-07-13T05:42:18;15.90;99.90
20125;DHT22;10223;50.862;4.360;2023-07-13T05:44:45;16.00;99.90
20125;DHT22;10223;50.862;4.360;2023-07-13T05:47:12;16.00;99.90
20125;DHT22;10223;50.862;4.360;2023-07-13T05:49:40;16.00;99.90
20125;DHT22;10223;50.862;4.360;2023-07-13T05:52:07;16.10;99.90
20125;DHT22;10223;50.862;4.360;2023-07-13T05:54:35;16.10;99.90
20125;DHT22;10223;50.862;4.360;2023-07-13T05:57:04;16.10;99.90
20125;DHT22;10223;50.862;4.360;2023-07-13T05:59:31;16.10;99.90
20125;DHT22;10223;50.862;4.360;2023-07-13T06:01:58;16.10;99.90
20125;DHT22;10223;50.862;4.360;2023-07-13T06:04:25;16.10;99.90
20125;DHT22;10223;50.862;4.360;2023-07-13T06:06:52;16.10;99.90
20125;DHT22;10223;50.862;4.360;2023-07-13T06:09:19;16.10;99.90
20125;DHT22;10223;50.862;4.360;2023-07-13T06:11:47;16.30;99.90
20125;DHT22;10223;50.862;4.360;2023-07-13T06:14:15;16.40;99.90
20125;DHT22;10223;50.862;4.360;2023-07-13T06:16:42;16.30;99.90
20125;DHT22;10223;50.862;4.360;2023-07-13T06:19:09;16.50;99.90
20125;DHT22;10223;50.862;4.360;2023-07-13T06:21:36;16.50;99.90
20125;DHT22;10223;50.862;4.360;2023-07-13T06:24:04;16.70;99.90
20125;DHT22;10223;50.862;4.360;2023-07-13T06:26:31;16.70;99.90
20125;DHT22;10223;50.862;4.360;2023-07-13T06:28:58;16.80;99.90
20125;DHT22;10223;50.862;4.360;2023-07-13T06:31:27;16.70;99.90
20125;DHT22;10223;50.862;4.360;2023-07-13T06:33:54;16.80;99.90
20125;DHT22;10223;50.862;4.360;2023-07-13T06:36:21;16.80;99.90
20125;DHT22;10223;50.862;4.360;2023-07-13T06:38:48;17.00;99.90
20125;DHT22;10223;50.862;4.360;2023-07-13T06:41:15;17.00;99.90
20125;DHT22;10223;50.862;4.360;2023-07-13T06:43:42;16.70;99.90
20125;DHT22;10223;50.862;4.360;2023-07-13T06:46:10;16.80;99.90
20125;DHT22;10223;50.862;4.360;2023-07-13T06:48:38;16.90;99.90
20125;DHT22;10223;50.862;4.360;2023-07-13T06:51:05;17.10;99.90
20125;DHT22;10223;50.862;4.360;2023-07-13T06:53:33;17.10;99.90
20125;DHT22;10223;50.862;4.360;2023-07-13T06:56:01;17.20;99.90
20125;DHT22;10223;50.862;4.360;2023-07-13T06:58:28;17.10;99.90
20125;DHT22;10223;50.862;4.360;2023-07-13T07:00:55;17.10;99.90
20125;DHT22;10223;50.862;4.360;2023-07-13T07:03:22;17.00;99.90
20125;DHT22;10223;50.862;4.360;2023-07-13T07:05:51;17.00;99.90
20125;DHT22;10223;50.862;4.360;2023-07-13T07:08:18;17.00;99.90
20125;DHT22;10223;50.862;4.360;2023-07-13T07:10:45;17.10;99.90
20125;DHT22;10223;50.862;4.360;2023-07-13T07:13:12;17.20;99.90
20125;DHT22;10223;50.862;4.360;2023-07-13T07:15:39;17.30;99.90
20125;DHT22;10223;50.862;4.360;2023-07-13T07:18:07;17.50;99.90
20125;DHT22;10223;50.862;4.360;2023-07-13T07:20:34;17.50;99.90
20125;DHT22;10223;50.862;4.360;2023-07-13T07:23:03;17.50;99.90
20125;DHT22;10223;50.862;4.360;2023-07-13T07:25:30;17.50;99.90
20125;DHT22;10223;50.862;4.360;2023-07-13T07:27:58;17.80;99.90
20125;DHT22;10223;50.862;4.360;2023-07-13T07:30:25;17.70;99.90
20125;DHT22;10223;50.862;4.360;2023-07-13T07:32:52;17.90;99.90
20125;DHT22;10223;50.862;4.360;2023-07-13T07:35:19;17.90;99.90
20125;DHT22;10223;50.862;4.360;2023-07-13T07:37:46;18.10;99.90
20125;DHT22;10223;50.862;4.360;2023-07-13T07:40:15;18.40;99.90
20125;DHT22;10223;50.862;4.360;2023-07-13T07:42:42;18.60;99.90
20125;DHT22;10223;50.862;4.360;2023-07-13T07:45:10;18.50;99.90
20125;DHT22;10223;50.862;4.360;2023-07-13T07:47:37;18.60;99.90
20125;DHT22;10223;50.862;4.360;2023-07-13T07:50:05;18.70;99.90
20125;DHT22;10223;50.862;4.360;2023-07-13T07:52:32;18.70;99.90
20125;DHT22;10223;50.862;4.360;2023-07-13T07:54:59;18.90;99.90
20125;DHT22;10223;50.862;4.360;2023-07-13T07:57:28;19.00;99.90
20125;DHT22;10223;50.862;4.360;2023-07-13T07:59:55;19.20;99.90
20125;DHT22;10223;50.862;4.360;2023-07-13T08:02:22;19.30;99.90
20125;DHT22;10223;50.862;4.360;2023-07-13T08:04:49;19.20;99.90
20125;DHT22;10223;50.862;4.360;2023-07-13T08:07:16;19.40;99.90
20125;DHT22;10223;50.862;4.360;2023-07-13T08:09:43;19.50;99.90
20125;DHT22;10223;50.862;4.360;2023-07-13T08:12:10;19.60;99.90
20125;DHT22;10223;50.862;4.360;2023-07-13T08:14:39;19.60;99.90
20125;DHT22;10223;50.862;4.360;2023-07-13T08:17:06;19.70;99.90
20125;DHT22;10223;50.862;4.360;2023-07-13T08:19:33;19.60;99.90
20125;DHT22;10223;50.862;4.360;2023-07-13T08:22:00;19.50;99.90
20125;DHT22;10223;50.862;4.360;2023-07-13T08:24:27;19.50;99.90
20125;DHT22;10223;50.862;4.360;2023-07-13T08:26:54;19.80;99.90
20125;DHT22;10223;50.862;4.360;2023-07-13T08:29:21;19.80;99.90
20125;DHT22;10223;50.862;4.360;2023-07-13T08:31:49;19.80;99.90
20125;DHT22;10223;50.862;4.360;2023-07-13T08:34:16;19.70;99.90
20125;DHT22;10223;50.862;4.360;2023-07-13T08:36:43;19.80;99.90
20125;DHT22;10223;50.862;4.360;2023-07-13T08:39:10;19.90;99.90
20125;DHT22;10223;50.862;4.360;2023-07-13T08:41:38;19.90;99.90
20125;DHT22;10223;50.862;4.360;2023-07-13T08:46:55;19.80;99.90
20125;DHT22;10223;50.862;4.360;2023-07-13T08:49:23;19.80;99.90
20125;DHT22;10223;50.862;4.360;2023-07-13T08:51:53;19.90;99.90
20125;DHT22;10223;50.862;4.360;2023-07-13T08:54:28;20.10;99.90
20125;DHT22;10223;50.862;4.360;2023-07-13T08:56:57;20.60;99.90
20125;DHT22;10223;50.862;4.360;2023-07-13T08:59:28;20.70;99.90
20125;DHT22;10223;50.862;4.360;2023-07-13T09:02:26;20.70;99.90
20125;DHT22;10223;50.862;4.360;2023-07-13T09:04:58;21.00;99.90
20125;DHT22;10223;50.862;4.360;2023-07-13T09:07:36;20.90;99.90
20125;DHT22;10223;50.862;4.360;2023-07-13T09:10:14;20.50;99.90
20125;DHT22;10223;50.862;4.360;2023-07-13T09:12:55;20.80;99.90
20125;DHT22;10223;50.862;4.360;2023-07-13T09:15:27;21.10;99.90
20125;DHT22;10223;50.862;4.360;2023-07-13T09:18:02;21.50;99.90
20125;DHT22;10223;50.862;4.360;2023-07-13T09:20:34;21.60;99.90
20125;DHT22;10223;50.862;4.360;2023-07-13T09:23:04;21.40;99.90
20125;DHT22;10223;50.862;4.360;2023-07-13T09:25:33;21.50;99.90
20125;DHT22;10223;50.862;4.360;2023-07-13T09:28:09;21.60;99.90
20125;DHT22;10223;50.862;4.360;2023-07-13T09:30:43;21.80;99.90
20125;DHT22;10223;50.862;4.360;2023-07-13T09:33:13;21.90;99.90
20125;DHT22;10223;50.862;4.360;2023-07-13T09:35:40;21.80;99.90
20125;DHT22;10223;50.862;4.360;2023-07-13T09:38:12;21.70;99.90
20125;DHT22;10223;50.862;4.360;2023-07-13T09:40:47;21.80;99.90
20125;DHT22;10223;50.862;4.360;2023-07-13T09:43:17;21.60;99.90
20125;DHT22;10223;50.862;4.360;2023-07-13T09:45:46;21.60;99.90
20125;DHT22;10223;50.862;4.360;2023-07-13T09:48:17;21.70;99.90
20125;DHT22;10223;50.862;4.360;2023-07-13T09:50:45;21.80;99.90
20125;DHT22;10223;50.862;4.360;2023-07-13T09:53:13;21.90;99.90
20125;DHT22;10223;50.862;4.360;2023-07-13T09:55:41;21.90;99.90
20125;DHT22;10223;50.862;4.360;2023-07-13T09:58:13;21.90;99.90
20125;DHT22;10223;50.862;4.360;2023-07-13T10:00:41;21.80;99.90
20125;DHT22;10223;50.862;4.360;2023-07-13T10:03:21;21.90;99.90
20125;DHT22;10223;50.862;4.360;2023-07-13T10:05:50;22.20;99.90
20125;DHT22;10223;50.862;4.360;2023-07-13T10:08:20;22.20;99.90
20125;DHT22;10223;50.862;4.360;2023-07-13T10:10:52;22.30;99.90
20125;DHT22;10223;50.862;4.360;2023-07-13T10:13:26;22.50;99.90
20125;DHT22;10223;50.862;4.360;2023-07-13T10:15:54;22.20;99.90
20125;DHT22;10223;50.862;4.360;2023-07-13T10:18:24;22.00;99.90
20125;DHT22;10223;50.862;4.360;2023-07-13T10:20:55;22.10;99.90
20125;DHT22;10223;50.862;4.360;2023-07-13T10:23:31;22.50;99.90
20125;DHT22;10223;50.862;4.360;2023-07-13T10:25:59;22.30;99.90
20125;DHT22;10223;50.862;4.360;2023-07-13T10:28:30;22.10;99.90
20125;DHT22;10223;50.862;4.360;2023-07-13T10:31:00;22.20;99.90
20125;DHT22;10223;50.862;4.360;2023-07-13T10:33:29;21.90;99.90
20125;DHT22;10223;50.862;4.360;2023-07-13T10:36:01;21.60;99.90
20125;DHT22;10223;50.862;4.360;2023-07-13T10:38:30;20.90;99.90
20125;DHT22;10223;50.862;4.360;2023-07-13T10:41:05;21.00;99.90
20125;DHT22;10223;50.862;4.360;2023-07-13T10:43:35;21.10;99.90
20125;DHT22;10223;50.862;4.360;2023-07-13T10:46:06;21.10;99.90
20125;DHT22;10223;50.862;4.360;2023-07-13T10:48:37;21.10;99.90
20125;DHT22;10223;50.862;4.360;2023-07-13T10:51:06;20.90;99.90
20125;DHT22;10223;50.862;4.360;2023-07-13T10:53:36;20.80;99.90
20125;DHT22;10223;50.862;4.360;2023-07-13T10:56:05;20.80;99.90
20125;DHT22;10223;50.862;4.360;2023-07-13T10:58:38;20.90;99.90
20125;DHT22;10223;50.862;4.360;2023-07-13T11:01:09;21.00;99.90
20125;DHT22;10223;50.862;4.360;2023-07-13T11:03:50;21.30;99.90
20125;DHT22;10223;50.862;4.360;2023-07-13T11:06:31;21.80;99.90
20125;DHT22;10223;50.862;4.360;2023-07-13T11:09:18;22.40;99.90
20125;DHT22;10223;50.862;4.360;2023-07-13T11:11:46;22.40;99.90
20125;DHT22;10223;50.862;4.360;2023-07-13T11:14:29;22.50;99.90
20125;DHT22;10223;50.862;4.360;2023-07-13T11:16:57;22.20;99.90
20125;DHT22;10223;50.862;4.360;2023-07-13T11:19:44;22.10;99.90
20125;DHT22;10223;50.862;4.360;2023-07-13T11:22:23;22.20;99.90
20125;DHT22;10223;50.862;4.360;2023-07-13T11:24:56;21.90;99.90
20125;DHT22;10223;50.862;4.360;2023-07-13T11:27:36;21.90;99.90
20125;DHT22;10223;50.862;4.360;2023-07-13T11:30:19;21.80;99.90
20125;DHT22;10223;50.862;4.360;2023-07-13T11:32:51;21.70;99.90
20125;DHT22;10223;50.862;4.360;2023-07-13T11:35:23;21.70;99.90
20125;DHT22;10223;50.862;4.360;2023-07-13T11:37:52;21.70;99.90
20125;DHT22;10223;50.862;4.360;2023-07-13T11:40:23;21.50;99.90
20125;DHT22;10223;50.862;4.360;2023-07-13T11:42:52;21.60;99.90
20125;DHT22;10223;50.862;4.360;2023-07-13T11:45:20;21.10;99.90
20125;DHT22;10223;50.862;4.360;2023-07-13T11:47:49;20.90;99.90
20125;DHT22;10223;50.862;4.360;2023-07-13T11:50:20;20.90;99.90
20125;DHT22;10223;50.862;4.360;2023-07-13T11:52:48;21.00;99.90
20125;DHT22;10223;50.862;4.360;2023-07-13T11:55:18;21.00;99.90
20125;DHT22;10223;50.862;4.360;2023-07-13T11:57:50;20.80;99.90
20125;DHT22;10223;50.862;4.360;2023-07-13T12:00:22;20.70;99.90
20125;DHT22;10223;50.862;4.360;2023-07-13T12:02:51;20.70;99.90
20125;DHT22;10223;50.862;4.360;2023-07-13T12:05:20;20.60;99.90
20125;DHT22;10223;50.862;4.360;2023-07-13T12:07:49;20.80;99.90
20125;DHT22;10223;50.862;4.360;2023-07-13T12:10:19;20.90;99.90
20125;DHT22;10223;50.862;4.360;2023-07-13T12:12:48;21.00;99.90
20125;DHT22;10223;50.862;4.360;2023-07-13T12:15:16;21.10;99.90
20125;DHT22;10223;50.862;4.360;2023-07-13T12:17:44;20.90;99.90
20125;DHT22;10223;50.862;4.360;2023-07-13T12:20:21;21.00;99.90
20125;DHT22;10223;50.862;4.360;2023-07-13T12:22:50;21.20;99.90
20125;DHT22;10223;50.862;4.360;2023-07-13T12:25:18;21.20;99.90
20125;DHT22;10223;50.862;4.360;2023-07-13T12:27:49;21.10;99.90
20125;DHT22;10223;50.862;4.360;2023-07-13T12:30:26;20.70;99.90
20125;DHT22;10223;50.862;4.360;2023-07-13T12:32:59;20.10;99.90
20125;DHT22;10223;50.862;4.360;2023-07-13T12:35:29;19.60;99.90
20125;DHT22;10223;50.862;4.360;2023-07-13T12:38:01;19.30;99.90
20125;DHT22;10223;50.862;4.360;2023-07-13T12:40:32;19.10;99.90
20125;DHT22;10223;50.862;4.360;2023-07-13T12:43:01;18.80;99.90
20125;DHT22;10223;50.862;4.360;2023-07-13T12:45:30;18.60;99.90
20125;DHT22;10223;50.862;4.360;2023-07-13T12:47:59;18.60;99.90
20125;DHT22;10223;50.862;4.360;2023-07-13T12:50:36;18.70;99.90
20125;DHT22;10223;50.862;4.360;2023-07-13T12:53:05;18.60;99.90
20125;DHT22;10223;50.862;4.360;2023-07-13T12:55:41;18.50;99.90
20125;DHT22;10223;50.862;4.360;2023-07-13T12:58:25;18.40;99.90
20125;DHT22;10223;50.862;4.360;2023-07-13T13:00:54;18.50;99.90
20125;DHT22;10223;50.862;4.360;2023-07-13T13:03:30;18.40;99.90
20125;DHT22;10223;50.862;4.360;2023-07-13T13:06:02;18.50;99.90
20125;DHT22;10223;50.862;4.360;2023-07-13T13:08:31;18.60;99.90
20125;DHT22;10223;50.862;4.360;2023-07-13T13:10:58;18.60;99.90
20125;DHT22;10223;50.862;4.360;2023-07-13T13:13:25;18.80;99.90
20125;DHT22;10223;50.862;4.360;2023-07-13T13:15:52;19.10;99.90
20125;DHT22;10223;50.862;4.360;2023-07-13T13:18:21;19.20;99.90
20125;DHT22;10223;50.862;4.360;2023-07-13T13:20:50;19.60;99.90
20125;DHT22;10223;50.862;4.360;2023-07-13T13:23:20;19.80;99.90
20125;DHT22;10223;50.862;4.360;2023-07-13T13:25:50;20.00;99.90
20125;DHT22;10223;50.862;4.360;2023-07-13T13:28:18;20.30;99.90
20125;DHT22;10223;50.862;4.360;2023-07-13T13:30:48;20.40;99.90
20125;DHT22;10223;50.862;4.360;2023-07-13T13:33:18;20.60;99.90
20125;DHT22;10223;50.862;4.360;2023-07-13T13:35:46;20.90;99.90
20125;DHT22;10223;50.862;4.360;2023-07-13T13:38:14;21.10;99.90
20125;DHT22;10223;50.862;4.360;2023-07-13T13:40:44;21.60;99.90
20125;DHT22;10223;50.862;4.360;2023-07-13T13:43:15;21.80;99.90
20125;DHT22;10223;50.862;4.360;2023-07-13T13:45:43;22.60;99.90
20125;DHT22;10223;50.862;4.360;2023-07-13T13:48:16;22.90;99.90
20125;DHT22;10223;50.862;4.360;2023-07-13T13:50:44;23.00;99.90
20125;DHT22;10223;50.862;4.360;2023-07-13T13:53:12;22.50;99.90
20125;DHT22;10223;50.862;4.360;2023-07-13T13:55:40;22.70;99.90
20125;DHT22;10223;50.862;4.360;2023-07-13T13:58:09;22.70;99.90
20125;DHT22;10223;50.862;4.360;2023-07-13T14:00:36;22.10;99.90
20125;DHT22;10223;50.862;4.360;2023-07-13T14:03:04;22.20;99.90
20125;DHT22;10223;50.862;4.360;2023-07-13T14:05:32;22.10;99.90
20125;DHT22;10223;50.862;4.360;2023-07-13T14:07:59;22.40;99.90
20125;DHT22;10223;50.862;4.360;2023-07-13T14:10:28;23.00;99.90
20125;DHT22;10223;50.862;4.360;2023-07-13T14:12:56;23.70;99.90
20125;DHT22;10223;50.862;4.360;2023-07-13T14:15:27;24.70;99.90
20125;DHT22;10223;50.862;4.360;2023-07-13T14:17:56;24.90;99.90
20125;DHT22;10223;50.862;4.360;2023-07-13T14:20:24;25.30;99.90
20125;DHT22;10223;50.862;4.360;2023-07-13T14:22:52;25.60;99.90
20125;DHT22;10223;50.862;4.360;2023-07-13T14:25:22;25.50;99.90
20125;DHT22;10223;50.862;4.360;2023-07-13T14:27:51;24.90;99.90
20125;DHT22;10223;50.862;4.360;2023-07-13T14:30:22;24.30;99.90
20125;DHT22;10223;50.862;4.360;2023-07-13T14:32:50;23.80;99.90
20125;DHT22;10223;50.862;4.360;2023-07-13T14:35:21;23.10;99.90
20125;DHT22;10223;50.862;4.360;2023-07-13T14:37:50;22.00;99.90
20125;DHT22;10223;50.862;4.360;2023-07-13T14:40:21;21.80;99.90
20125;DHT22;10223;50.862;4.360;2023-07-13T14:42:50;21.60;99.90
20125;DHT22;10223;50.862;4.360;2023-07-13T14:45:18;21.30;99.90
20125;DHT22;10223;50.862;4.360;2023-07-13T14:47:46;21.70;99.90
20125;DHT22;10223;50.862;4.360;2023-07-13T14:50:18;21.70;99.90
20125;DHT22;10223;50.862;4.360;2023-07-13T14:52:47;22.30;99.90
20125;DHT22;10223;50.862;4.360;2023-07-13T14:55:16;23.40;99.90
20125;DHT22;10223;50.862;4.360;2023-07-13T14:57:44;23.70;99.90
20125;DHT22;10223;50.862;4.360;2023-07-13T15:00:16;24.20;99.90
20125;DHT22;10223;50.862;4.360;2023-07-13T15:02:45;24.80;99.90
20125;DHT22;10223;50.862;4.360;2023-07-13T15:05:17;25.30;99.90
20125;DHT22;10223;50.862;4.360;2023-07-13T15:07:59;24.60;99.90
20125;DHT22;10223;50.862;4.360;2023-07-13T15:10:28;24.40;99.90
20125;DHT22;10223;50.862;4.360;2023-07-13T15:12:59;23.40;99.90
20125;DHT22;10223;50.862;4.360;2023-07-13T15:15:28;23.20;99.90
20125;DHT22;10223;50.862;4.360;2023-07-13T15:17:56;23.40;99.90
20125;DHT22;10223;50.862;4.360;2023-07-13T15:20:29;23.10;99.90
20125;DHT22;10223;50.862;4.360;2023-07-13T15:23:04;22.40;99.90
20125;DHT22;10223;50.862;4.360;2023-07-13T15:25:38;22.00;99.90
20125;DHT22;10223;50.862;4.360;2023-07-13T15:28:05;22.60;99.90
20125;DHT22;10223;50.862;4.360;2023-07-13T15:30:38;23.10;99.90
20125;DHT22;10223;50.862;4.360;2023-07-13T15:33:11;23.10;99.90
20125;DHT22;10223;50.862;4.360;2023-07-13T15:35:40;23.50;99.90
20125;DHT22;10223;50.862;4.360;2023-07-13T15:38:15;23.20;99.90
20125;DHT22;10223;50.862;4.360;2023-07-13T15:40:43;23.30;99.90
20125;DHT22;10223;50.862;4.360;2023-07-13T15:43:11;23.50;99.90
20125;DHT22;10223;50.862;4.360;2023-07-13T15:45:39;24.30;99.90